Schwaz, Austria
Current Conditions -  °F | °C
As of 2:50 AM on Wednesday 22 Oct 2014 (Local Time) from LOWI Reporting Station
Broken Clouds Broken Clouds  
Wind Chill: 39°   Ceiling: 9000
Heat Index: 46°   Visibility: 6mi
Dew Point: 34°   Wind: 17mph
Humidity: 62%   Direction: 250°WSW
Pressure: 29.85"   Gusts: 32mph
Location:  47.34°N, 11.73°E
Report Text: LOWI 220150Z 25015G28KT 9999 FEW040 SCT070 BKN090 08/01 Q1011 NOSIG
Loading
Personal Weather Stations






























Interactive Weather Map
Tropical Storm Tracking
New forecast layout! Learn more

10-Day Weather Forecast

Advertisements
Track Severe Weather on mobile